Tinker AFB, Oklahoma
Current Conditions -  °F | °C
As of 1:58 PM on Thursday 23 Oct 2014 (Local Time) from KTIK Reporting Station
Scattered Clouds Scattered Clouds  
Wind Chill: 75°   Ceiling: Unl
Heat Index: 75°   Visibility: 10mi
Dew Point: 58°   Wind: 9mph
Humidity: 56%   Direction: 190°S
Pressure: 30.09"   Gusts: NA
Location:  35.4189°N, 97.3941°W
Report Text: KTIK 231858Z AUTO 19008KT 10SM SCT055 24/15 A3009 RMK AO2 SLP187 T02390145 $
Loading
Personal Weather Stations






























Interactive Weather Map
Tropical Storm Tracking
New forecast layout! Learn more

10-Day Weather Forecast

Advertisements
Track Severe Weather on mobile